| time (UTC) | temp F | wind direction | speed knots | gust knots | rain 1hr in | rain 24hr in | rain mn in | humidity % | barometer mb |
| 20260504193508 | 78 | 252 | 1.7 | 6.1 | 0.00 | 0.00 | 0.00 | 34 | 1014.7 |
| 20260504193026 | 78 | 138 | 0.9 | 6.1 | 0.00 | 0.00 | 0.00 | 33 | 1014.7 |
| 20260504192510 | 77 | 127 | 1.7 | 5.2 | 0.00 | 0.00 | 0.00 | 33 | 1014.9 |
| 20260504192007 | 77 | 204 | 0.9 | 5.2 | 0.00 | 0.00 | 0.00 | 34 | 1015.0 |
| 20260504191507 | 77 | 296 | 1.7 | 5.2 | 0.00 | 0.00 | 0.00 | 35 | 1015.1 |
| 20260504191006 | 76 | 127 | 0.9 | 5.2 | 0.00 | 0.00 | 0.00 | 34 | 1015.0 |
| 20260504190504 | 76 | 261 | 1.7 | 5.2 | 0.00 | 0.00 | 0.00 | 34 | 1015.2 |
| 20260504190016 | 76 | 201 | 0.9 | 5.2 | 0.00 | 0.00 | 0.00 | 35 | 1015.3 |
| 20260504185503 | 77 | 239 | 2.6 | 5.2 | 0.00 | 0.00 | 0.00 | 32 | 1015.3 |
| 20260504185008 | 76 | 241 | 0.0 | 4.3 | 0.00 | 0.00 | 0.00 | 36 | 1015.2 |
| 20260504184519 | 76 | 208 | 0.9 | 2.6 | 0.00 | 0.00 | 0.00 | 36 | 1015.3 |
| 20260504184006 | 76 | 211 | 0.9 | 5.2 | 0.00 | 0.00 | 0.00 | 35 | 1015.5 |
| 20260504183508 | 75 | 289 | 1.7 | 5.2 | 0.00 | 0.00 | 0.00 | 35 | 1015.5 |
| 20260504183022 | 75 | 297 | 1.7 | 6.1 | 0.00 | 0.00 | 0.00 | 36 | 1015.4 |
| 20260504182509 | 75 | 224 | 1.7 | 6.1 | 0.00 | 0.00 | 0.00 | 35 | 1015.5 |
| 20260504182013 | 75 | 217 | 1.7 | 4.3 | 0.00 | 0.00 | 0.00 | 36 | 1015.6 |
| 20260504181534 | 75 | 233 | 0.9 | 4.3 | 0.00 | 0.00 | 0.00 | 36 | 1015.6 |
| 20260504181010 | 75 | 218 | 1.7 | 4.3 | 0.00 | 0.00 | 0.00 | 36 | 1015.5 |
| 20260504180504 | 75 | 209 | 1.7 | 5.2 | 0.00 | 0.00 | 0.00 | 37 | 1015.5 |
| 20260504180017 | 74 | 220 | 1.7 | 5.2 | 0.00 | 0.00 | 0.00 | 36 | 1015.6 |
| 20260504175504 | 75 | 221 | 0.9 | 5.2 | 0.00 | 0.00 | 0.00 | 36 | 1015.6 |
| 20260504175003 | 74 | 311 | 0.9 | 5.2 | 0.00 | 0.00 | 0.00 | 37 | 1015.6 |
| 20260504174518 | 74 | 121 | 0.9 | 3.5 | 0.00 | 0.00 | 0.00 | 37 | 1015.6 |
| 20260504174004 | 73 | 146 | 0.9 | 5.2 | 0.00 | 0.00 | 0.00 | 36 | 1015.8 |
| 20260504173510 | 73 | 284 | 1.7 | 6.1 | 0.00 | 0.00 | 0.00 | 37 | 1015.9 |
| 20260504173022 | 73 | 185 | 1.7 | 6.1 | 0.00 | 0.00 | 0.00 | 37 | 1015.7 |
| 20260504172505 | 72 | 155 | 0.9 | 4.3 | 0.00 | 0.00 | 0.00 | 37 | 1015.7 |
| 20260504172009 | 72 | 261 | 0.9 | 4.3 | 0.00 | 0.00 | 0.00 | 37 | 1015.7 |
| 20260504171530 | 72 | 186 | 1.7 | 6.1 | 0.00 | 0.00 | 0.00 | 36 | 1015.9 |
| 20260504171011 | 72 | 298 | 1.7 | 6.1 | 0.00 | 0.00 | 0.00 | 36 | 1016.0 |
| 20260504170510 | 72 | 234 | 1.7 | 5.2 | 0.00 | 0.00 | 0.00 | 39 | 1016.2 |
| 20260504151007 | 67 | 196 | 0.9 | 6.1 | 0.00 | 0.00 | 0.00 | 41 | 1017.8 |
| 20260504150510 | 67 | 290 | 1.7 | 6.1 | 0.00 | 0.00 | 0.00 | 41 | 1017.8 |
| 20260504141013 | 63 | 116 | 0.9 | 3.5 | 0.00 | 0.00 | 0.00 | 55 | 1017.4 |
| 20260504140507 | 62 | 101 | 1.7 | 3.5 | 0.00 | 0.00 | 0.00 | 57 | 1017.4 |
| 20260504130511 | 57 | 114 | 0.0 | 1.7 | 0.00 | 0.00 | 0.00 | 66 | 1017.7 |
| 20260504110506 | 41 | 227 | 0.0 | 1.7 | 0.00 | 0.00 | 0.00 | 92 | 1017.2 |
| 20260504100503 | 41 | 227 | 0.0 | 1.7 | 0.00 | 0.00 | 0.00 | 90 | 1017.4 |
| 20260504081506 | 43 | 221 | 0.0 | 0.0 | 0.00 | 0.00 | 0.00 | 89 | 1017.1 |
| 20260504081006 | 43 | 221 | 0.0 | 0.0 | 0.00 | 0.00 | 0.00 | 89 | 1017.0 |
| 20260504080505 | 43 | 221 | 0.0 | 0.0 | 0.00 | 0.00 | 0.00 | 89 | 1017.0 |
| 20260504050513 | 47 | 221 | 0.0 | 0.0 | 0.00 | 0.00 | 0.00 | 79 | 1017.4 |
| 20260504045507 | 47 | 221 | 0.0 | 0.0 | 0.00 | 0.00 | 0.00 | 77 | 1017.4 |
| 20260504045009 | 47 | 221 | 0.0 | 0.0 | 0.00 | 0.00 | 0.00 | 77 | 1017.3 |
| 20260504044526 | 47 | 221 | 0.0 | 0.0 | 0.00 | 0.00 | 0.00 | 76 | 1017.3 |
| 20260504044010 | 48 | 221 | 0.0 | 0.0 | 0.00 | 0.00 | 0.00 | 74 | 1017.2 |
| 20260504043505 | 48 | 221 | 0.0 | 0.0 | 0.00 | 0.00 | 0.00 | 74 | 1017.2 |
| 20260504043013 | 48 | 221 | 0.0 | 0.0 | 0.00 | 0.00 | 0.00 | 74 | 1017.1 |
| 20260504042505 | 48 | 221 | 0.0 | 0.0 | 0.00 | 0.00 | 0.00 | 73 | 1017.0 |
| 20260504042005 | 48 | 221 | 0.0 | 1.7 | 0.00 | 0.00 | 0.00 | 73 | 1017.0 |
| 20260504041518 | 48 | 221 | 0.0 | 1.7 | 0.00 | 0.00 | 0.00 | 73 | 1017.0 |
| 20260504041007 | 48 | 221 | 0.0 | 0.9 | 0.00 | 0.00 | 0.00 | 73 | 1017.0 |
| 20260504040507 | 48 | 221 | 0.0 | 0.0 | 0.00 | 0.00 | 0.00 | 74 | 1017.0 |
| 20260504040037 | 48 | 221 | 0.0 | 0.0 | 0.00 | 0.00 | 0.00 | 73 | 1017.1 |
| 20260504035510 | 49 | 221 | 0.0 | 0.0 | 0.00 | 0.00 | 0.00 | 73 | 1017.2 |
| 20260504035008 | 49 | 221 | 0.0 | 1.7 | 0.00 | 0.00 | 0.00 | 73 | 1017.2 |
| 20260504034525 | 49 | 221 | 0.0 | 1.7 | 0.00 | 0.00 | 0.00 | 72 | 1017.1 |
| 20260504034009 | 49 | 221 | 0.0 | 1.7 | 0.00 | 0.00 | 0.00 | 72 | 1017.1 |
| 20260504033508 | 49 | 221 | 0.0 | 1.7 | 0.00 | 0.00 | 0.00 | 72 | 1017.1 |
| 20260504033026 | 49 | 221 | 0.0 | 1.7 | 0.00 | 0.00 | 0.00 | 71 | 1017.2 |
| 20260504032503 | 50 | 221 | 0.0 | 0.9 | 0.00 | 0.00 | 0.00 | 71 | 1017.2 |
| 20260504032005 | 50 | 221 | 0.0 | 0.0 | 0.00 | 0.00 | 0.00 | 70 | 1017.2 |
| 20260504031514 | 50 | 221 | 0.0 | 0.0 | 0.00 | 0.00 | 0.00 | 68 | 1017.3 |
| 20260504031004 | 50 | 221 | 0.0 | 1.7 | 0.00 | 0.00 | 0.00 | 68 | 1017.2 |
| 20260504030508 | 50 | 221 | 0.0 | 1.7 | 0.00 | 0.00 | 0.00 | 67 | 1017.2 |
| 20260504030020 | 50 | 221 | 0.0 | 1.7 | 0.00 | 0.00 | 0.00 | 66 | 1017.3 |
| 20260504025507 | 51 | 221 | 0.0 | 0.9 | 0.00 | 0.00 | 0.00 | 64 | 1017.3 |
| 20260504025009 | 51 | 221 | 0.0 | 0.0 | 0.00 | 0.00 | 0.00 | 64 | 1017.4 |
| 20260504024522 | 51 | 221 | 0.0 | 0.0 | 0.00 | 0.00 | 0.00 | 64 | 1017.3 |
| 20260504024008 | 51 | 221 | 0.0 | 0.0 | 0.00 | 0.00 | 0.00 | 63 | 1017.3 |
| 20260504023511 | 52 | 221 | 0.0 | 0.0 | 0.00 | 0.00 | 0.00 | 62 | 1017.3 |
| 20260504023026 | 52 | 221 | 0.0 | 0.0 | 0.00 | 0.00 | 0.00 | 61 | 1017.2 |
| 20260504022509 | 52 | 221 | 0.0 | 0.0 | 0.00 | 0.00 | 0.00 | 60 | 1017.2 |
| 20260504022009 | 52 | 221 | 0.0 | 0.0 | 0.00 | 0.00 | 0.00 | 59 | 1017.1 |
| 20260504021528 | 52 | 221 | 0.0 | 0.0 | 0.00 | 0.00 | 0.00 | 59 | 1017.1 |
| 20260504021005 | 53 | 221 | 0.0 | 1.7 | 0.00 | 0.00 | 0.00 | 58 | 1017.0 |
| 20260504020504 | 53 | 221 | 0.0 | 1.7 | 0.00 | 0.00 | 0.00 | 59 | 1017.0 |
| 20260504020014 | 53 | 221 | 0.0 | 0.0 | 0.00 | 0.00 | 0.00 | 58 | 1016.9 |
| 20260504015505 | 53 | 221 | 0.0 | 0.0 | 0.00 | 0.00 | 0.00 | 56 | 1016.8 |
| 20260504015012 | 54 | 221 | 0.0 | 0.0 | 0.00 | 0.00 | 0.00 | 56 | 1016.7 |
| 20260504014525 | 54 | 221 | 0.0 | 0.0 | 0.00 | 0.00 | 0.00 | 54 | 1016.7 |
| 20260504014006 | 54 | 221 | 0.0 | 0.0 | 0.00 | 0.00 | 0.00 | 55 | 1016.7 |
| 20260504013509 | 55 | 221 | 0.0 | 0.0 | 0.00 | 0.00 | 0.00 | 53 | 1016.5 |
| 20260504013025 | 55 | 221 | 0.0 | 0.0 | 0.00 | 0.00 | 0.00 | 53 | 1016.5 |
| 20260504012510 | 55 | 221 | 0.0 | 0.0 | 0.00 | 0.00 | 0.00 | 53 | 1016.4 |
| 20260504012008 | 56 | 221 | 0.0 | 0.0 | 0.00 | 0.00 | 0.00 | 51 | 1016.4 |
| 20260504011525 | 56 | 221 | 0.0 | 0.0 | 0.00 | 0.00 | 0.00 | 51 | 1016.4 |
| 20260504011007 | 56 | 221 | 0.0 | 0.0 | 0.00 | 0.00 | 0.00 | 49 | 1016.4 |
| 20260504010514 | 57 | 221 | 0.0 | 0.0 | 0.00 | 0.00 | 0.00 | 48 | 1016.4 |
| 20260504010012 | 57 | 221 | 0.0 | 0.0 | 0.00 | 0.00 | 0.00 | 47 | 1016.4 |
| 20260504005504 | 58 | 221 | 0.0 | 0.0 | 0.00 | 0.00 | 0.00 | 46 | 1016.4 |
| 20260504005005 | 58 | 221 | 0.0 | 0.0 | 0.00 | 0.00 | 0.00 | 45 | 1016.3 |
| 20260504004521 | 59 | 221 | 0.0 | 0.0 | 0.00 | 0.00 | 0.00 | 44 | 1016.2 |
| 20260504004005 | 59 | 221 | 0.0 | 0.0 | 0.00 | 0.00 | 0.00 | 43 | 1016.2 |
| 20260504003510 | 59 | 221 | 0.0 | 0.0 | 0.00 | 0.00 | 0.00 | 42 | 1016.2 |
| 20260504003021 | 60 | 221 | 0.0 | 0.0 | 0.00 | 0.00 | 0.00 | 41 | 1016.1 |
| 20260504002506 | 60 | 221 | 0.0 | 0.0 | 0.00 | 0.00 | 0.00 | 41 | 1016.1 |
| 20260504002009 | 61 | 221 | 0.0 | 0.0 | 0.00 | 0.00 | 0.00 | 40 | 1016.1 |
| 20260504001524 | 61 | 221 | 0.0 | 0.0 | 0.00 | 0.00 | 0.00 | 39 | 1016.1 |
| 20260504001011 | 62 | 221 | 0.0 | 0.0 | 0.00 | 0.00 | 0.00 | 37 | 1016.0 |
| 20260504000507 | 62 | 221 | 0.0 | 0.0 | 0.00 | 0.00 | 0.00 | 37 | 1015.8 |
| 20260504000028 | 63 | 221 | 0.0 | 0.0 | 0.00 | 0.00 | 0.00 | 36 | 1015.8 |
| 20260503235506 | 63 | 221 | 0.0 | 0.0 | 0.00 | 0.00 | 0.00 | 36 | 1015.8 |
| 20260503235007 | 63 | 221 | 0.0 | 0.0 | 0.00 | 0.00 | 0.00 | 35 | 1015.8 |
| 20260503234506 | 64 | 221 | 0.0 | 0.0 | 0.00 | 0.00 | 0.00 | 34 | 1015.8 |
| 20260503234003 | 64 | 221 | 0.0 | 1.7 | 0.00 | 0.00 | 0.00 | 33 | 1015.8 |
| 20260503233503 | 64 | 221 | 0.0 | 1.7 | 0.00 | 0.00 | 0.00 | 32 | 1015.8 |
| 20260503233004 | 65 | 226 | 0.0 | 1.7 | 0.00 | 0.00 | 0.00 | 31 | 1016.0 |
| 20260503232503 | 65 | 240 | 0.0 | 1.7 | 0.00 | 0.00 | 0.00 | 31 | 1016.0 |
| 20260503232002 | 65 | 243 | 0.0 | 1.7 | 0.00 | 0.00 | 0.00 | 30 | 1015.9 |
| 20260503231506 | 65 | 248 | 0.9 | 2.6 | 0.00 | 0.00 | 0.00 | 30 | 1015.9 |
| 20260503231003 | 65 | 269 | 0.0 | 2.6 | 0.00 | 0.00 | 0.00 | 30 | 1015.9 |
| 20260503230504 | 66 | 238 | 0.0 | 1.7 | 0.00 | 0.00 | 0.00 | 30 | 1015.9 |
| 20260503230006 | 66 | 245 | 0.0 | 2.6 | 0.00 | 0.00 | 0.00 | 29 | 1016.0 |
| 20260503225503 | 66 | 274 | 0.9 | 2.6 | 0.00 | 0.00 | 0.00 | 29 | 1016.0 |
| 20260503225004 | 66 | 208 | 0.9 | 2.6 | 0.00 | 0.00 | 0.00 | 29 | 1016.1 |
| 20260503224507 | 66 | 196 | 0.0 | 5.2 | 0.00 | 0.00 | 0.00 | 30 | 1016.0 |
| 20260503224003 | 66 | 196 | 0.9 | 5.2 | 0.00 | 0.00 | 0.00 | 29 | 1016.0 |
| 20260503223503 | 66 | 121 | 1.7 | 3.5 | 0.00 | 0.00 | 0.00 | 29 | 1016.1 |
| 20260503223006 | 66 | 260 | 0.0 | 2.6 | 0.00 | 0.00 | 0.00 | 28 | 1016.2 |
| 20260503222503 | 66 | 236 | 0.9 | 5.2 | 0.00 | 0.00 | 0.00 | 29 | 1016.2 |
| 20260503222003 | 66 | 263 | 0.0 | 5.2 | 0.00 | 0.00 | 0.00 | 31 | 1016.1 |
| 20260503221504 | 66 | 238 | 0.9 | 2.6 | 0.00 | 0.00 | 0.00 | 29 | 1016.1 |
| 20260503221003 | 66 | 200 | 0.9 | 3.5 | 0.00 | 0.00 | 0.00 | 30 | 1016.1 |
| 20260503220504 | 66 | 218 | 0.9 | 4.3 | 0.00 | 0.00 | 0.00 | 30 | 1016.3 |
| 20260503220006 | 66 | 240 | 0.9 | 3.5 | 0.00 | 0.00 | 0.00 | 28 | 1016.3 |
| 20260503215504 | 66 | 255 | 0.9 | 4.3 | 0.00 | 0.00 | 0.00 | 29 | 1016.4 |
| 20260503215002 | 66 | 290 | 1.7 | 4.3 | 0.00 | 0.00 | 0.00 | 30 | 1016.5 |
| 20260503214504 | 67 | 209 | 1.7 | 4.3 | 0.00 | 0.00 | 0.00 | 28 | 1016.5 |
| 20260503214002 | 67 | 277 | 1.7 | 6.1 | 0.00 | 0.00 | 0.00 | 29 | 1016.5 |
| 20260503213502 | 67 | 186 | 0.9 | 6.1 | 0.00 | 0.00 | 0.00 | 29 | 1016.6 |
| 20260503213004 | 67 | 244 | 1.7 | 6.1 | 0.00 | 0.00 | 0.00 | 29 | 1016.7 |
| 20260503212503 | 67 | 196 | 1.7 | 8.7 | 0.00 | 0.00 | 0.00 | 28 | 1016.9 |
| 20260503212002 | 68 | 140 | 1.7 | 8.7 | 0.00 | 0.00 | 0.00 | 28 | 1016.8 |
| 20260503211505 | 68 | 245 | 0.9 | 7.0 | 0.00 | 0.00 | 0.00 | 29 | 1016.8 |
| 20260503211007 | 67 | 209 | 1.7 | 7.0 | 0.00 | 0.00 | 0.00 | 27 | 1016.8 |
| 20260503210503 | 68 | 260 | 0.9 | 5.2 | 0.00 | 0.00 | 0.00 | 29 | 1016.9 |
| 20260503210005 | 68 | 287 | 2.6 | 5.2 | 0.00 | 0.00 | 0.00 | 27 | 1016.9 |
| 20260503205507 | 68 | 302 | 0.9 | 1.7 | 0.00 | 0.00 | 0.00 | 28 | 1016.9 |
| 20260503205004 | 67 | 119 | 0.9 | 2.6 | 0.00 | 0.00 | 0.00 | 28 | 1016.9 |
| 20260503204529 | 66 | 163 | 0.0 | 6.1 | 0.00 | 0.00 | 0.00 | 28 | 1017.0 |
| 20260503204016 | 66 | 175 | 1.7 | 6.1 | 0.00 | 0.00 | 0.00 | 27 | 1017.2 |
| 20260503203507 | 67 | 274 | 1.7 | 6.1 | 0.00 | 0.00 | 0.00 | 26 | 1017.2 |
| 20260503203028 | 66 | 105 | 0.0 | 2.6 | 0.00 | 0.00 | 0.00 | 26 | 1017.2 |
| 20260503202510 | 66 | 128 | 1.7 | 6.1 | 0.00 | 0.00 | 0.00 | 26 | 1017.3 |
| 20260503202013 | 66 | 302 | 1.7 | 6.1 | 0.00 | 0.00 | 0.00 | 25 | 1017.4 |
| 20260503201521 | 66 | 169 | 0.9 | 3.5 | 0.00 | 0.00 | 0.00 | 28 | 1017.4 |
| 20260503201006 | 65 | 260 | 0.9 | 5.2 | 0.00 | 0.00 | 0.00 | 29 | 1017.6 |
| 20260503200507 | 65 | 308 | 2.6 | 6.1 | 0.00 | 0.00 | 0.00 | 29 | 1017.5 |
| 20260503200023 | 65 | 211 | 1.7 | 6.1 | 0.00 | 0.00 | 0.00 | 27 | 1017.6 |
| 20260503195507 | 65 | 200 | 1.7 | 5.2 | 0.00 | 0.00 | 0.00 | 27 | 1017.7 |
| 20260503195010 | 65 | 254 | 1.7 | 6.1 | 0.00 | 0.00 | 0.00 | 28 | 1017.8 |
| 20260503194524 | 65 | 213 | 0.9 | 6.1 | 0.00 | 0.00 | 0.00 | 25 | 1017.8 |
| 20260503194008 | 65 | 275 | 0.9 | 5.2 | 0.00 | 0.00 | 0.00 | 25 | 1017.9 |